sensor_id;sensor_type;location;lat;lon;timestamp;temperature;humidity
14370;DHT22;7268;50.792;0.252;2023-05-14T00:00:53;9.60;95.40
14370;DHT22;7268;50.792;0.252;2023-05-14T00:03:19;9.70;95.50
14370;DHT22;7268;50.792;0.252;2023-05-14T00:05:47;9.70;95.60
14370;DHT22;7268;50.792;0.252;2023-05-14T00:08:14;9.70;95.70
14370;DHT22;7268;50.792;0.252;2023-05-14T00:10:43;9.70;95.50
14370;DHT22;7268;50.792;0.252;2023-05-14T00:13:12;9.70;95.60
14370;DHT22;7268;50.792;0.252;2023-05-14T00:15:39;9.80;95.80
14370;DHT22;7268;50.792;0.252;2023-05-14T00:18:09;9.70;95.90
14370;DHT22;7268;50.792;0.252;2023-05-14T00:20:37;9.70;96.00
14370;DHT22;7268;50.792;0.252;2023-05-14T00:23:04;9.80;96.30
14370;DHT22;7268;50.792;0.252;2023-05-14T00:25:31;9.90;96.20
14370;DHT22;7268;50.792;0.252;2023-05-14T00:27:58;9.90;96.30
14370;DHT22;7268;50.792;0.252;2023-05-14T00:30:25;10.00;96.00
14370;DHT22;7268;50.792;0.252;2023-05-14T00:32:52;10.10;96.10
14370;DHT22;7268;50.792;0.252;2023-05-14T00:35:19;10.20;96.10
14370;DHT22;7268;50.792;0.252;2023-05-14T00:37:47;10.20;96.00
14370;DHT22;7268;50.792;0.252;2023-05-14T00:40:14;10.30;95.90
14370;DHT22;7268;50.792;0.252;2023-05-14T00:42:41;10.30;95.90
14370;DHT22;7268;50.792;0.252;2023-05-14T00:45:08;10.40;95.80
14370;DHT22;7268;50.792;0.252;2023-05-14T00:47:35;10.40;95.70
14370;DHT22;7268;50.792;0.252;2023-05-14T00:50:05;10.40;95.50
14370;DHT22;7268;50.792;0.252;2023-05-14T00:52:32;10.40;95.50
14370;DHT22;7268;50.792;0.252;2023-05-14T00:55:03;10.40;95.40
14370;DHT22;7268;50.792;0.252;2023-05-14T00:57:32;10.40;95.40
14370;DHT22;7268;50.792;0.252;2023-05-14T01:00:00;10.50;95.20
14370;DHT22;7268;50.792;0.252;2023-05-14T01:02:27;10.50;95.20
14370;DHT22;7268;50.792;0.252;2023-05-14T01:04:54;10.60;95.10
14370;DHT22;7268;50.792;0.252;2023-05-14T01:07:58;10.50;95.20
14370;DHT22;7268;50.792;0.252;2023-05-14T01:13:18;10.50;95.10
14370;DHT22;7268;50.792;0.252;2023-05-14T01:15:48;10.50;95.00
14370;DHT22;7268;50.792;0.252;2023-05-14T01:18:17;10.50;95.10
14370;DHT22;7268;50.792;0.252;2023-05-14T01:20:44;10.50;95.00
14370;DHT22;7268;50.792;0.252;2023-05-14T01:23:11;10.60;95.00
14370;DHT22;7268;50.792;0.252;2023-05-14T01:25:38;10.60;95.00
14370;DHT22;7268;50.792;0.252;2023-05-14T01:28:17;10.60;95.00
14370;DHT22;7268;50.792;0.252;2023-05-14T01:31:09;10.70;94.80
14370;DHT22;7268;50.792;0.252;2023-05-14T01:33:40;10.70;94.70
14370;DHT22;7268;50.792;0.252;2023-05-14T01:36:08;10.60;94.90
14370;DHT22;7268;50.792;0.252;2023-05-14T01:38:35;10.60;94.80
14370;DHT22;7268;50.792;0.252;2023-05-14T01:41:03;10.60;94.80
14370;DHT22;7268;50.792;0.252;2023-05-14T01:43:31;10.50;94.50
14370;DHT22;7268;50.792;0.252;2023-05-14T01:45:58;10.40;94.80
14370;DHT22;7268;50.792;0.252;2023-05-14T01:48:25;10.40;94.90
14370;DHT22;7268;50.792;0.252;2023-05-14T01:50:51;10.30;95.20
14370;DHT22;7268;50.792;0.252;2023-05-14T01:53:18;10.30;94.90
14370;DHT22;7268;50.792;0.252;2023-05-14T01:55:45;10.40;94.80
14370;DHT22;7268;50.792;0.252;2023-05-14T01:58:12;10.30;95.00
14370;DHT22;7268;50.792;0.252;2023-05-14T02:00:39;10.40;94.90
14370;DHT22;7268;50.792;0.252;2023-05-14T02:03:06;10.40;94.90
14370;DHT22;7268;50.792;0.252;2023-05-14T02:05:32;10.40;94.80
14370;DHT22;7268;50.792;0.252;2023-05-14T02:07:59;10.30;94.90
14370;DHT22;7268;50.792;0.252;2023-05-14T02:10:26;10.30;95.00
14370;DHT22;7268;50.792;0.252;2023-05-14T02:12:53;10.30;95.00
14370;DHT22;7268;50.792;0.252;2023-05-14T02:15:20;10.30;94.90
14370;DHT22;7268;50.792;0.252;2023-05-14T02:17:47;10.30;95.00
14370;DHT22;7268;50.792;0.252;2023-05-14T02:20:14;10.20;95.10
14370;DHT22;7268;50.792;0.252;2023-05-14T02:22:41;10.30;94.80
14370;DHT22;7268;50.792;0.252;2023-05-14T02:25:11;10.30;94.90
14370;DHT22;7268;50.792;0.252;2023-05-14T02:27:38;10.20;94.90
14370;DHT22;7268;50.792;0.252;2023-05-14T02:30:05;10.30;94.80
14370;DHT22;7268;50.792;0.252;2023-05-14T02:32:32;10.30;94.90
14370;DHT22;7268;50.792;0.252;2023-05-14T02:34:59;10.40;94.80
14370;DHT22;7268;50.792;0.252;2023-05-14T02:37:26;10.30;94.90
14370;DHT22;7268;50.792;0.252;2023-05-14T02:39:53;10.30;94.90
14370;DHT22;7268;50.792;0.252;2023-05-14T02:42:20;10.30;94.70
14370;DHT22;7268;50.792;0.252;2023-05-14T02:44:47;10.30;94.80
14370;DHT22;7268;50.792;0.252;2023-05-14T02:47:14;10.20;94.90
14370;DHT22;7268;50.792;0.252;2023-05-14T02:49:41;10.20;95.20
14370;DHT22;7268;50.792;0.252;2023-05-14T02:52:08;10.20;95.00
14370;DHT22;7268;50.792;0.252;2023-05-14T02:54:35;10.20;94.90
14370;DHT22;7268;50.792;0.252;2023-05-14T02:57:02;10.10;94.80
14370;DHT22;7268;50.792;0.252;2023-05-14T02:59:29;10.00;94.90
14370;DHT22;7268;50.792;0.252;2023-05-14T03:01:57;10.10;95.00
14370;DHT22;7268;50.792;0.252;2023-05-14T03:04:25;10.00;94.90
14370;DHT22;7268;50.792;0.252;2023-05-14T03:06:51;10.00;95.10
14370;DHT22;7268;50.792;0.252;2023-05-14T03:09:18;9.90;94.90
14370;DHT22;7268;50.792;0.252;2023-05-14T03:11:45;10.00;95.40
14370;DHT22;7268;50.792;0.252;2023-05-14T03:14:12;10.00;95.10
14370;DHT22;7268;50.792;0.252;2023-05-14T03:16:39;10.00;94.80
14370;DHT22;7268;50.792;0.252;2023-05-14T03:19:08;10.00;95.00
14370;DHT22;7268;50.792;0.252;2023-05-14T03:21:35;10.00;95.10
14370;DHT22;7268;50.792;0.252;2023-05-14T03:24:02;9.90;95.20
14370;DHT22;7268;50.792;0.252;2023-05-14T03:26:29;9.90;95.20
14370;DHT22;7268;50.792;0.252;2023-05-14T03:28:56;9.90;95.20
14370;DHT22;7268;50.792;0.252;2023-05-14T03:31:23;9.90;95.30
14370;DHT22;7268;50.792;0.252;2023-05-14T03:33:50;9.80;95.30
14370;DHT22;7268;50.792;0.252;2023-05-14T03:36:19;9.80;95.40
14370;DHT22;7268;50.792;0.252;2023-05-14T03:38:46;9.80;95.80
14370;DHT22;7268;50.792;0.252;2023-05-14T03:41:13;9.80;95.20
14370;DHT22;7268;50.792;0.252;2023-05-14T03:43:39;9.70;95.30
14370;DHT22;7268;50.792;0.252;2023-05-14T03:46:06;9.70;95.30
14370;DHT22;7268;50.792;0.252;2023-05-14T03:48:33;9.70;95.50
14370;DHT22;7268;50.792;0.252;2023-05-14T03:51:00;9.70;95.40
14370;DHT22;7268;50.792;0.252;2023-05-14T03:53:27;9.50;95.50
14370;DHT22;7268;50.792;0.252;2023-05-14T03:55:54;9.60;95.60
14370;DHT22;7268;50.792;0.252;2023-05-14T03:58:21;9.60;95.60
14370;DHT22;7268;50.792;0.252;2023-05-14T04:00:47;9.70;95.50
14370;DHT22;7268;50.792;0.252;2023-05-14T04:03:14;9.70;95.70
14370;DHT22;7268;50.792;0.252;2023-05-14T04:05:44;9.70;95.60
14370;DHT22;7268;50.792;0.252;2023-05-14T04:08:11;9.70;95.70
14370;DHT22;7268;50.792;0.252;2023-05-14T04:10:38;9.80;95.40
14370;DHT22;7268;50.792;0.252;2023-05-14T04:13:05;9.70;95.20
14370;DHT22;7268;50.792;0.252;2023-05-14T04:15:32;9.60;95.40
14370;DHT22;7268;50.792;0.252;2023-05-14T04:17:59;9.60;95.50
14370;DHT22;7268;50.792;0.252;2023-05-14T04:20:26;9.60;95.40
14370;DHT22;7268;50.792;0.252;2023-05-14T04:22:53;9.60;95.40
14370;DHT22;7268;50.792;0.252;2023-05-14T04:25:19;9.60;95.40
14370;DHT22;7268;50.792;0.252;2023-05-14T04:27:46;9.70;95.40
14370;DHT22;7268;50.792;0.252;2023-05-14T04:30:14;9.70;95.40
14370;DHT22;7268;50.792;0.252;2023-05-14T04:32:41;9.80;95.50
14370;DHT22;7268;50.792;0.252;2023-05-14T04:35:08;9.80;95.40
14370;DHT22;7268;50.792;0.252;2023-05-14T04:37:36;9.90;95.40
14370;DHT22;7268;50.792;0.252;2023-05-14T04:40:04;9.80;95.30
14370;DHT22;7268;50.792;0.252;2023-05-14T04:42:31;9.70;95.30
14370;DHT22;7268;50.792;0.252;2023-05-14T04:44:58;9.80;95.30
14370;DHT22;7268;50.792;0.252;2023-05-14T04:47:25;9.80;95.20
14370;DHT22;7268;50.792;0.252;2023-05-14T04:49:52;9.70;95.00
14370;DHT22;7268;50.792;0.252;2023-05-14T04:52:19;9.70;95.30
14370;DHT22;7268;50.792;0.252;2023-05-14T04:54:46;9.70;95.00
14370;DHT22;7268;50.792;0.252;2023-05-14T04:57:13;9.60;95.20
14370;DHT22;7268;50.792;0.252;2023-05-14T04:59:40;9.50;95.30
14370;DHT22;7268;50.792;0.252;2023-05-14T05:02:09;9.60;95.50
14370;DHT22;7268;50.792;0.252;2023-05-14T05:04:37;9.80;95.20
14370;DHT22;7268;50.792;0.252;2023-05-14T05:07:04;9.90;95.40
14370;DHT22;7268;50.792;0.252;2023-05-14T05:09:31;9.90;95.40
14370;DHT22;7268;50.792;0.252;2023-05-14T05:12:01;10.00;95.10
14370;DHT22;7268;50.792;0.252;2023-05-14T05:14:31;10.00;94.90
14370;DHT22;7268;50.792;0.252;2023-05-14T05:16:57;10.00;95.00
14370;DHT22;7268;50.792;0.252;2023-05-14T05:19:24;10.00;94.80
14370;DHT22;7268;50.792;0.252;2023-05-14T05:22:05;10.00;94.80
14370;DHT22;7268;50.792;0.252;2023-05-14T05:24:32;10.00;94.90
14370;DHT22;7268;50.792;0.252;2023-05-14T05:26:59;10.10;94.90
14370;DHT22;7268;50.792;0.252;2023-05-14T05:29:27;10.00;94.70
14370;DHT22;7268;50.792;0.252;2023-05-14T05:31:54;10.00;94.80
14370;DHT22;7268;50.792;0.252;2023-05-14T05:34:21;10.00;95.00
14370;DHT22;7268;50.792;0.252;2023-05-14T05:36:48;10.10;95.00
14370;DHT22;7268;50.792;0.252;2023-05-14T05:39:16;10.10;94.80
14370;DHT22;7268;50.792;0.252;2023-05-14T05:41:43;10.20;94.80
14370;DHT22;7268;50.792;0.252;2023-05-14T05:44:10;10.20;94.80
14370;DHT22;7268;50.792;0.252;2023-05-14T05:46:37;10.30;94.50
14370;DHT22;7268;50.792;0.252;2023-05-14T05:49:04;10.40;94.30
14370;DHT22;7268;50.792;0.252;2023-05-14T05:51:30;10.40;94.10
14370;DHT22;7268;50.792;0.252;2023-05-14T05:53:58;10.40;93.80
14370;DHT22;7268;50.792;0.252;2023-05-14T05:56:25;10.30;94.10
14370;DHT22;7268;50.792;0.252;2023-05-14T05:58:52;10.30;93.80
14370;DHT22;7268;50.792;0.252;2023-05-14T06:01:19;10.10;93.50
14370;DHT22;7268;50.792;0.252;2023-05-14T06:03:46;10.00;93.80
14370;DHT22;7268;50.792;0.252;2023-05-14T06:06:14;9.90;94.20
14370;DHT22;7268;50.792;0.252;2023-05-14T06:08:41;10.10;94.20
14370;DHT22;7268;50.792;0.252;2023-05-14T06:11:08;10.10;94.30
14370;DHT22;7268;50.792;0.252;2023-05-14T06:13:37;10.10;94.80
14370;DHT22;7268;50.792;0.252;2023-05-14T06:16:07;10.30;94.40
14370;DHT22;7268;50.792;0.252;2023-05-14T06:18:34;10.10;94.20
14370;DHT22;7268;50.792;0.252;2023-05-14T06:21:01;10.30;94.20
14370;DHT22;7268;50.792;0.252;2023-05-14T06:23:28;10.40;94.00
14370;DHT22;7268;50.792;0.252;2023-05-14T06:25:55;10.50;93.60
14370;DHT22;7268;50.792;0.252;2023-05-14T06:28:27;10.50;93.30
14370;DHT22;7268;50.792;0.252;2023-05-14T06:30:54;10.50;93.50
14370;DHT22;7268;50.792;0.252;2023-05-14T06:33:21;10.50;93.80
14370;DHT22;7268;50.792;0.252;2023-05-14T06:35:59;10.50;93.80
14370;DHT22;7268;50.792;0.252;2023-05-14T06:38:26;10.70;93.90
14370;DHT22;7268;50.792;0.252;2023-05-14T06:40:53;10.70;93.00
14370;DHT22;7268;50.792;0.252;2023-05-14T06:43:20;10.70;92.90
14370;DHT22;7268;50.792;0.252;2023-05-14T06:45:48;10.50;92.80
14370;DHT22;7268;50.792;0.252;2023-05-14T06:48:16;10.40;93.00
14370;DHT22;7268;50.792;0.252;2023-05-14T06:50:47;10.50;93.00
14370;DHT22;7268;50.792;0.252;2023-05-14T06:53:14;10.50;92.70
14370;DHT22;7268;50.792;0.252;2023-05-14T06:55:41;10.50;92.90
14370;DHT22;7268;50.792;0.252;2023-05-14T06:58:08;10.50;93.00
14370;DHT22;7268;50.792;0.252;2023-05-14T07:00:35;10.50;93.60
14370;DHT22;7268;50.792;0.252;2023-05-14T07:03:02;10.60;93.50
14370;DHT22;7268;50.792;0.252;2023-05-14T07:05:30;10.80;93.00
14370;DHT22;7268;50.792;0.252;2023-05-14T07:07:57;10.70;92.50
14370;DHT22;7268;50.792;0.252;2023-05-14T07:10:24;10.70;92.40
14370;DHT22;7268;50.792;0.252;2023-05-14T07:12:51;10.90;92.50
14370;DHT22;7268;50.792;0.252;2023-05-14T07:15:18;10.90;92.70
14370;DHT22;7268;50.792;0.252;2023-05-14T07:17:45;11.20;92.30
14370;DHT22;7268;50.792;0.252;2023-05-14T07:20:12;11.40;92.40
14370;DHT22;7268;50.792;0.252;2023-05-14T07:22:39;11.50;91.10
14370;DHT22;7268;50.792;0.252;2023-05-14T07:25:06;11.50;90.80
14370;DHT22;7268;50.792;0.252;2023-05-14T07:27:33;11.20;91.40
14370;DHT22;7268;50.792;0.252;2023-05-14T07:30:02;11.10;91.30
14370;DHT22;7268;50.792;0.252;2023-05-14T07:32:29;10.90;91.40
14370;DHT22;7268;50.792;0.252;2023-05-14T07:34:57;10.70;91.90
14370;DHT22;7268;50.792;0.252;2023-05-14T07:37:24;10.80;92.20
14370;DHT22;7268;50.792;0.252;2023-05-14T07:39:52;11.10;92.00
14370;DHT22;7268;50.792;0.252;2023-05-14T07:42:19;11.20;91.40
14370;DHT22;7268;50.792;0.252;2023-05-14T07:45:01;11.20;91.20
14370;DHT22;7268;50.792;0.252;2023-05-14T07:47:28;11.60;91.20
14370;DHT22;7268;50.792;0.252;2023-05-14T07:49:55;12.10;89.70
14370;DHT22;7268;50.792;0.252;2023-05-14T07:52:23;12.50;88.80
14370;DHT22;7268;50.792;0.252;2023-05-14T07:54:51;12.90;86.90
14370;DHT22;7268;50.792;0.252;2023-05-14T07:57:18;12.80;85.70
14370;DHT22;7268;50.792;0.252;2023-05-14T07:59:46;12.70;85.90
14370;DHT22;7268;50.792;0.252;2023-05-14T08:02:14;12.60;86.50
14370;DHT22;7268;50.792;0.252;2023-05-14T08:04:42;12.70;87.40
14370;DHT22;7268;50.792;0.252;2023-05-14T08:07:10;13.00;86.30
14370;DHT22;7268;50.792;0.252;2023-05-14T08:09:37;13.10;85.40
14370;DHT22;7268;50.792;0.252;2023-05-14T08:12:04;13.50;84.60
14370;DHT22;7268;50.792;0.252;2023-05-14T08:14:31;13.80;82.40
14370;DHT22;7268;50.792;0.252;2023-05-14T08:16:58;13.90;81.60
14370;DHT22;7268;50.792;0.252;2023-05-14T08:19:25;13.40;84.00
14370;DHT22;7268;50.792;0.252;2023-05-14T08:21:53;13.50;84.20
14370;DHT22;7268;50.792;0.252;2023-05-14T08:24:20;13.90;83.80
14370;DHT22;7268;50.792;0.252;2023-05-14T08:26:47;14.10;83.10
14370;DHT22;7268;50.792;0.252;2023-05-14T08:29:14;14.30;83.10
14370;DHT22;7268;50.792;0.252;2023-05-14T08:31:42;14.30;81.00
14370;DHT22;7268;50.792;0.252;2023-05-14T08:34:09;14.50;83.00
14370;DHT22;7268;50.792;0.252;2023-05-14T08:36:37;15.10;79.20
14370;DHT22;7268;50.792;0.252;2023-05-14T08:39:06;15.40;78.60
14370;DHT22;7268;50.792;0.252;2023-05-14T08:41:34;16.10;74.30
14370;DHT22;7268;50.792;0.252;2023-05-14T08:44:14;15.90;73.40
14370;DHT22;7268;50.792;0.252;2023-05-14T08:46:44;15.70;75.20
14370;DHT22;7268;50.792;0.252;2023-05-14T08:52:07;17.10;70.40
14370;DHT22;7268;50.792;0.252;2023-05-14T08:54:37;18.10;67.00
14370;DHT22;7268;50.792;0.252;2023-05-14T08:57:05;18.90;64.00
14370;DHT22;7268;50.792;0.252;2023-05-14T08:59:32;19.90;61.40
14370;DHT22;7268;50.792;0.252;2023-05-14T09:02:01;19.60;61.70
14370;DHT22;7268;50.792;0.252;2023-05-14T09:04:29;19.70;60.80
14370;DHT22;7268;50.792;0.252;2023-05-14T09:06:59;20.20;59.70
14370;DHT22;7268;50.792;0.252;2023-05-14T09:09:27;20.70;56.60
14370;DHT22;7268;50.792;0.252;2023-05-14T09:11:54;21.10;56.70
14370;DHT22;7268;50.792;0.252;2023-05-14T09:14:21;21.20;56.00
14370;DHT22;7268;50.792;0.252;2023-05-14T09:16:49;19.80;59.90
14370;DHT22;7268;50.792;0.252;2023-05-14T09:19:17;18.70;63.50
14370;DHT22;7268;50.792;0.252;2023-05-14T09:21:46;18.80;64.20
14370;DHT22;7268;50.792;0.252;2023-05-14T09:24:20;18.20;63.50
14370;DHT22;7268;50.792;0.252;2023-05-14T09:26:55;17.50;66.10
14370;DHT22;7268;50.792;0.252;2023-05-14T09:29:27;17.00;68.90
14370;DHT22;7268;50.792;0.252;2023-05-14T09:31:55;16.30;72.00
14370;DHT22;7268;50.792;0.252;2023-05-14T09:34:28;15.90;73.20
14370;DHT22;7268;50.792;0.252;2023-05-14T09:37:00;15.80;74.20
14370;DHT22;7268;50.792;0.252;2023-05-14T09:39:29;15.60;76.20
14370;DHT22;7268;50.792;0.252;2023-05-14T09:41:56;15.80;75.80
14370;DHT22;7268;50.792;0.252;2023-05-14T09:44:23;16.20;73.60
14370;DHT22;7268;50.792;0.252;2023-05-14T09:46:51;17.30;72.50
14370;DHT22;7268;50.792;0.252;2023-05-14T09:49:19;17.80;67.80
14370;DHT22;7268;50.792;0.252;2023-05-14T09:51:47;17.10;70.50
14370;DHT22;7268;50.792;0.252;2023-05-14T09:54:15;16.90;71.70
14370;DHT22;7268;50.792;0.252;2023-05-14T09:56:42;16.60;72.80
14370;DHT22;7268;50.792;0.252;2023-05-14T09:59:10;16.40;74.00
14370;DHT22;7268;50.792;0.252;2023-05-14T10:01:37;16.60;74.00
14370;DHT22;7268;50.792;0.252;2023-05-14T10:04:06;16.50;73.50
14370;DHT22;7268;50.792;0.252;2023-05-14T10:06:36;15.90;75.70
14370;DHT22;7268;50.792;0.252;2023-05-14T10:09:12;15.50;77.40
14370;DHT22;7268;50.792;0.252;2023-05-14T10:11:43;15.50;78.00
14370;DHT22;7268;50.792;0.252;2023-05-14T10:14:17;14.90;79.20
14370;DHT22;7268;50.792;0.252;2023-05-14T10:16:49;15.00;81.70
14370;DHT22;7268;50.792;0.252;2023-05-14T10:19:19;15.00;81.10
14370;DHT22;7268;50.792;0.252;2023-05-14T10:21:48;15.20;80.30
14370;DHT22;7268;50.792;0.252;2023-05-14T10:24:19;15.60;80.20
14370;DHT22;7268;50.792;0.252;2023-05-14T10:26:49;16.20;76.10
14370;DHT22;7268;50.792;0.252;2023-05-14T10:29:16;16.10;77.60
14370;DHT22;7268;50.792;0.252;2023-05-14T10:31:47;16.20;76.60
14370;DHT22;7268;50.792;0.252;2023-05-14T10:34:40;16.50;76.00
14370;DHT22;7268;50.792;0.252;2023-05-14T10:37:11;17.10;74.60
14370;DHT22;7268;50.792;0.252;2023-05-14T10:39:52;17.00;73.80
14370;DHT22;7268;50.792;0.252;2023-05-14T10:42:27;17.20;74.70
14370;DHT22;7268;50.792;0.252;2023-05-14T10:45:00;17.80;71.30
14370;DHT22;7268;50.792;0.252;2023-05-14T10:47:28;18.30;69.50
14370;DHT22;7268;50.792;0.252;2023-05-14T10:49:57;18.50;69.40
14370;DHT22;7268;50.792;0.252;2023-05-14T10:52:25;18.50;68.40
14370;DHT22;7268;50.792;0.252;2023-05-14T10:55:05;18.20;68.30
14370;DHT22;7268;50.792;0.252;2023-05-14T10:57:38;17.70;70.50
14370;DHT22;7268;50.792;0.252;2023-05-14T11:00:05;17.50;72.40
14370;DHT22;7268;50.792;0.252;2023-05-14T11:02:36;16.90;72.40
14370;DHT22;7268;50.792;0.252;2023-05-14T11:05:24;16.90;73.40
14370;DHT22;7268;50.792;0.252;2023-05-14T11:07:55;17.40;71.80
14370;DHT22;7268;50.792;0.252;2023-05-14T11:10:23;17.20;71.60
14370;DHT22;7268;50.792;0.252;2023-05-14T11:12:56;17.80;73.00
14370;DHT22;7268;50.792;0.252;2023-05-14T11:15:25;18.90;66.30
14370;DHT22;7268;50.792;0.252;2023-05-14T11:17:52;19.40;65.10
14370;DHT22;7268;50.792;0.252;2023-05-14T11:20:20;18.90;65.50
14370;DHT22;7268;50.792;0.252;2023-05-14T11:22:48;18.60;68.70
14370;DHT22;7268;50.792;0.252;2023-05-14T11:25:17;19.30;67.30
14370;DHT22;7268;50.792;0.252;2023-05-14T11:27:45;20.30;61.30
14370;DHT22;7268;50.792;0.252;2023-05-14T11:30:13;21.10;60.10
14370;DHT22;7268;50.792;0.252;2023-05-14T11:32:41;20.90;59.70
14370;DHT22;7268;50.792;0.252;2023-05-14T11:35:09;21.50;58.90
14370;DHT22;7268;50.792;0.252;2023-05-14T11:37:37;21.50;58.00
14370;DHT22;7268;50.792;0.252;2023-05-14T11:40:07;21.60;58.20
14370;DHT22;7268;50.792;0.252;2023-05-14T11:42:36;21.30;60.00
14370;DHT22;7268;50.792;0.252;2023-05-14T11:45:03;20.80;59.60
14370;DHT22;7268;50.792;0.252;2023-05-14T11:47:30;20.20;61.80
14370;DHT22;7268;50.792;0.252;2023-05-14T11:49:58;20.80;60.70
14370;DHT22;7268;50.792;0.252;2023-05-14T11:52:26;20.20;61.40
14370;DHT22;7268;50.792;0.252;2023-05-14T11:54:53;20.00;63.40
14370;DHT22;7268;50.792;0.252;2023-05-14T11:57:21;20.10;63.00
14370;DHT22;7268;50.792;0.252;2023-05-14T11:59:54;21.00;61.20
14370;DHT22;7268;50.792;0.252;2023-05-14T12:02:26;21.00;59.10
14370;DHT22;7268;50.792;0.252;2023-05-14T12:04:56;20.10;61.90
14370;DHT22;7268;50.792;0.252;2023-05-14T12:07:23;19.70;63.00
14370;DHT22;7268;50.792;0.252;2023-05-14T12:09:54;19.10;64.40
14370;DHT22;7268;50.792;0.252;2023-05-14T12:12:33;19.30;65.80
14370;DHT22;7268;50.792;0.252;2023-05-14T12:15:01;19.00;66.20
14370;DHT22;7268;50.792;0.252;2023-05-14T12:17:28;19.60;65.90
14370;DHT22;7268;50.792;0.252;2023-05-14T12:19:56;19.20;65.90
14370;DHT22;7268;50.792;0.252;2023-05-14T12:22:23;18.70;67.70
14370;DHT22;7268;50.792;0.252;2023-05-14T12:24:57;19.30;64.80
14370;DHT22;7268;50.792;0.252;2023-05-14T12:27:26;19.60;64.90
14370;DHT22;7268;50.792;0.252;2023-05-14T12:29:59;19.20;66.00
14370;DHT22;7268;50.792;0.252;2023-05-14T12:32:49;19.50;65.50
14370;DHT22;7268;50.792;0.252;2023-05-14T12:35:20;18.40;67.50
14370;DHT22;7268;50.792;0.252;2023-05-14T12:37:47;17.20;72.40
14370;DHT22;7268;50.792;0.252;2023-05-14T12:40:14;17.80;71.10
14370;DHT22;7268;50.792;0.252;2023-05-14T12:42:40;18.30;68.90
14370;DHT22;7268;50.792;0.252;2023-05-14T12:45:07;18.50;68.60
14370;DHT22;7268;50.792;0.252;2023-05-14T12:47:35;18.80;69.80
14370;DHT22;7268;50.792;0.252;2023-05-14T12:50:03;18.60;67.80
14370;DHT22;7268;50.792;0.252;2023-05-14T12:52:30;18.20;69.80
14370;DHT22;7268;50.792;0.252;2023-05-14T12:55:00;17.70;70.90
14370;DHT22;7268;50.792;0.252;2023-05-14T12:57:27;17.40;73.10
14370;DHT22;7268;50.792;0.252;2023-05-14T12:59:56;17.30;72.20
14370;DHT22;7268;50.792;0.252;2023-05-14T13:02:23;18.00;70.30
14370;DHT22;7268;50.792;0.252;2023-05-14T13:04:49;17.60;71.90
14370;DHT22;7268;50.792;0.252;2023-05-14T13:07:18;17.30;73.30
14370;DHT22;7268;50.792;0.252;2023-05-14T13:09:45;16.70;75.00
14370;DHT22;7268;50.792;0.252;2023-05-14T13:12:12;16.50;75.30
14370;DHT22;7268;50.792;0.252;2023-05-14T13:14:39;16.70;76.10
14370;DHT22;7268;50.792;0.252;2023-05-14T13:17:06;16.80;77.70
14370;DHT22;7268;50.792;0.252;2023-05-14T13:19:33;17.00;76.40
14370;DHT22;7268;50.792;0.252;2023-05-14T13:22:00;16.40;75.70
14370;DHT22;7268;50.792;0.252;2023-05-14T13:24:28;15.90;78.10
14370;DHT22;7268;50.792;0.252;2023-05-14T13:26:54;15.60;79.20
14370;DHT22;7268;50.792;0.252;2023-05-14T13:29:23;15.70;79.30
14370;DHT22;7268;50.792;0.252;2023-05-14T13:31:49;15.80;80.00
14370;DHT22;7268;50.792;0.252;2023-05-14T13:34:16;15.80;79.30
14370;DHT22;7268;50.792;0.252;2023-05-14T13:36:43;15.90;79.50
14370;DHT22;7268;50.792;0.252;2023-05-14T13:39:10;15.90;80.00
14370;DHT22;7268;50.792;0.252;2023-05-14T13:41:39;16.30;78.30
14370;DHT22;7268;50.792;0.252;2023-05-14T13:44:06;16.20;78.00
14370;DHT22;7268;50.792;0.252;2023-05-14T13:46:33;16.20;79.80
14370;DHT22;7268;50.792;0.252;2023-05-14T13:49:00;16.30;78.10
14370;DHT22;7268;50.792;0.252;2023-05-14T13:51:27;16.00;79.30
14370;DHT22;7268;50.792;0.252;2023-05-14T13:53:54;15.90;78.90
14370;DHT22;7268;50.792;0.252;2023-05-14T13:56:22;15.80;80.70
14370;DHT22;7268;50.792;0.252;2023-05-14T13:58:49;15.80;80.60
14370;DHT22;7268;50.792;0.252;2023-05-14T14:01:19;15.80;80.40
14370;DHT22;7268;50.792;0.252;2023-05-14T14:03:48;15.90;80.00
14370;DHT22;7268;50.792;0.252;2023-05-14T14:06:15;16.10;80.60
14370;DHT22;7268;50.792;0.252;2023-05-14T14:08:44;16.40;80.50
14370;DHT22;7268;50.792;0.252;2023-05-14T14:11:11;16.60;79.50
14370;DHT22;7268;50.792;0.252;2023-05-14T14:13:39;16.30;78.50
14370;DHT22;7268;50.792;0.252;2023-05-14T14:16:07;16.20;79.90
14370;DHT22;7268;50.792;0.252;2023-05-14T14:18:33;16.40;79.60
14370;DHT22;7268;50.792;0.252;2023-05-14T14:21:01;16.10;80.00
14370;DHT22;7268;50.792;0.252;2023-05-14T14:23:27;16.30;80.70
14370;DHT22;7268;50.792;0.252;2023-05-14T14:25:54;16.20;81.60
14370;DHT22;7268;50.792;0.252;2023-05-14T14:28:21;16.10;80.20
14370;DHT22;7268;50.792;0.252;2023-05-14T14:30:49;16.10;82.40
14370;DHT22;7268;50.792;0.252;2023-05-14T14:33:16;16.10;81.40
14370;DHT22;7268;50.792;0.252;2023-05-14T14:35:43;16.20;80.90
14370;DHT22;7268;50.792;0.252;2023-05-14T14:38:10;16.20;79.90
14370;DHT22;7268;50.792;0.252;2023-05-14T14:40:37;16.40;80.80
14370;DHT22;7268;50.792;0.252;2023-05-14T14:43:04;16.70;80.90
14370;DHT22;7268;50.792;0.252;2023-05-14T14:45:33;16.70;80.00
14370;DHT22;7268;50.792;0.252;2023-05-14T14:50:53;16.90;79.80
14370;DHT22;7268;50.792;0.252;2023-05-14T14:53:21;16.60;79.50
14370;DHT22;7268;50.792;0.252;2023-05-14T14:55:48;16.40;81.10
14370;DHT22;7268;50.792;0.252;2023-05-14T14:58:17;16.40;81.50
14370;DHT22;7268;50.792;0.252;2023-05-14T15:00:44;16.20;82.20
14370;DHT22;7268;50.792;0.252;2023-05-14T15:03:11;16.10;82.40
14370;DHT22;7268;50.792;0.252;2023-05-14T15:05:40;16.00;82.80
14370;DHT22;7268;50.792;0.252;2023-05-14T15:08:07;16.00;82.60
14370;DHT22;7268;50.792;0.252;2023-05-14T15:10:34;16.00;82.60
14370;DHT22;7268;50.792;0.252;2023-05-14T15:13:05;16.10;82.80
14370;DHT22;7268;50.792;0.252;2023-05-14T15:15:33;16.30;82.80
14370;DHT22;7268;50.792;0.252;2023-05-14T15:18:00;16.20;81.30
14370;DHT22;7268;50.792;0.252;2023-05-14T15:20:27;16.20;83.00
14370;DHT22;7268;50.792;0.252;2023-05-14T15:22:54;16.20;82.50
14370;DHT22;7268;50.792;0.252;2023-05-14T15:25:22;15.90;83.30
14370;DHT22;7268;50.792;0.252;2023-05-14T15:27:52;15.70;84.40
14370;DHT22;7268;50.792;0.252;2023-05-14T15:30:19;15.70;83.30
14370;DHT22;7268;50.792;0.252;2023-05-14T15:32:46;15.60;84.60
14370;DHT22;7268;50.792;0.252;2023-05-14T15:35:13;15.40;84.60
14370;DHT22;7268;50.792;0.252;2023-05-14T15:37:41;15.20;85.40
14370;DHT22;7268;50.792;0.252;2023-05-14T15:40:09;14.90;86.10
14370;DHT22;7268;50.792;0.252;2023-05-14T15:42:39;14.80;87.40
14370;DHT22;7268;50.792;0.252;2023-05-14T15:45:11;14.70;87.70
14370;DHT22;7268;50.792;0.252;2023-05-14T15:47:39;14.50;88.00
14370;DHT22;7268;50.792;0.252;2023-05-14T15:50:07;14.60;87.90
14370;DHT22;7268;50.792;0.252;2023-05-14T15:52:34;14.70;88.00
14370;DHT22;7268;50.792;0.252;2023-05-14T15:55:02;14.80;87.80
14370;DHT22;7268;50.792;0.252;2023-05-14T15:57:30;14.70;86.90
14370;DHT22;7268;50.792;0.252;2023-05-14T15:59:57;14.40;89.10
14370;DHT22;7268;50.792;0.252;2023-05-14T16:02:24;14.00;90.20